Bishop, California
Current Conditions -  °F | °C
As of 3:56 AM on Friday 24 Oct 2014 (Local Time) from KBIH Reporting Station
Clear Clear  
Wind Chill: 33°   Ceiling: Unl
Heat Index: 39°   Visibility: 10mi
Dew Point: 23°   Wind: 8mph
Humidity: 53%   Direction: 270°W
Pressure: 30.09"   Gusts: NA
Location:  37.24°N, 118.4°W
Report Text: KBIH 241056Z AUTO 27007KT 10SM CLR 04/M05 A3009 RMK AO2 SLP162 T00391050
Loading
Personal Weather Stations






























Interactive Weather Map New forecast layout! Learn more

10-Day Weather Forecast

Advertisements
Track Severe Weather on mobile